sensor_id;sensor_type;location;lat;lon;timestamp;P1;durP1;ratioP1;P2;durP2;ratioP2
5153;SDS011;2595;53.584;10.084;2022-08-03T00:00:41;4.87;;;4.60;;
5153;SDS011;2595;53.584;10.084;2022-08-03T00:03:06;4.80;;;4.50;;
5153;SDS011;2595;53.584;10.084;2022-08-03T00:05:32;5.10;;;4.67;;
5153;SDS011;2595;53.584;10.084;2022-08-03T00:08:01;4.73;;;4.23;;
5153;SDS011;2595;53.584;10.084;2022-08-03T00:10:26;4.53;;;4.07;;
5153;SDS011;2595;53.584;10.084;2022-08-03T00:12:52;5.40;;;5.00;;
5153;SDS011;2595;53.584;10.084;2022-08-03T00:15:18;7.47;;;4.97;;
5153;SDS011;2595;53.584;10.084;2022-08-03T00:17:44;5.33;;;5.03;;
5153;SDS011;2595;53.584;10.084;2022-08-03T00:20:10;5.13;;;4.83;;
5153;SDS011;2595;53.584;10.084;2022-08-03T00:22:36;4.67;;;4.43;;
5153;SDS011;2595;53.584;10.084;2022-08-03T00:25:01;5.10;;;4.77;;
5153;SDS011;2595;53.584;10.084;2022-08-03T00:27:27;5.70;;;5.40;;
5153;SDS011;2595;53.584;10.084;2022-08-03T00:29:53;4.50;;;4.20;;
5153;SDS011;2595;53.584;10.084;2022-08-03T00:32:18;4.53;;;4.33;;
5153;SDS011;2595;53.584;10.084;2022-08-03T00:34:44;4.80;;;4.47;;
5153;SDS011;2595;53.584;10.084;2022-08-03T00:37:10;5.77;;;5.27;;
5153;SDS011;2595;53.584;10.084;2022-08-03T00:39:35;5.60;;;4.60;;
5153;SDS011;2595;53.584;10.084;2022-08-03T00:42:02;5.23;;;4.97;;
5153;SDS011;2595;53.584;10.084;2022-08-03T00:44:28;5.07;;;4.77;;
5153;SDS011;2595;53.584;10.084;2022-08-03T00:46:54;5.00;;;4.80;;
5153;SDS011;2595;53.584;10.084;2022-08-03T00:49:19;5.60;;;5.10;;
5153;SDS011;2595;53.584;10.084;2022-08-03T00:51:45;5.00;;;4.80;;
5153;SDS011;2595;53.584;10.084;2022-08-03T00:54:11;5.60;;;5.30;;
5153;SDS011;2595;53.584;10.084;2022-08-03T00:56:38;8.13;;;5.07;;
5153;SDS011;2595;53.584;10.084;2022-08-03T00:59:06;4.73;;;4.43;;
5153;SDS011;2595;53.584;10.084;2022-08-03T01:01:34;4.93;;;4.73;;
5153;SDS011;2595;53.584;10.084;2022-08-03T01:04:00;5.20;;;5.00;;
5153;SDS011;2595;53.584;10.084;2022-08-03T01:06:43;5.60;;;5.30;;
5153;SDS011;2595;53.584;10.084;2022-08-03T01:12:07;5.20;;;5.00;;
5153;SDS011;2595;53.584;10.084;2022-08-03T01:14:47;6.27;;;5.00;;
5153;SDS011;2595;53.584;10.084;2022-08-03T01:17:24;5.20;;;4.90;;
5153;SDS011;2595;53.584;10.084;2022-08-03T01:20:03;5.60;;;5.20;;
5153;SDS011;2595;53.584;10.084;2022-08-03T01:25:33;5.43;;;5.10;;
5153;SDS011;2595;53.584;10.084;2022-08-03T01:30:55;5.40;;;5.17;;
5153;SDS011;2595;53.584;10.084;2022-08-03T01:33:27;5.33;;;4.93;;
5153;SDS011;2595;53.584;10.084;2022-08-03T01:36:01;5.27;;;5.00;;
5153;SDS011;2595;53.584;10.084;2022-08-03T01:38:37;5.00;;;4.70;;
5153;SDS011;2595;53.584;10.084;2022-08-03T01:41:07;4.93;;;4.73;;
5153;SDS011;2595;53.584;10.084;2022-08-03T01:43:37;5.30;;;4.90;;
5153;SDS011;2595;53.584;10.084;2022-08-03T01:46:06;4.73;;;4.53;;
5153;SDS011;2595;53.584;10.084;2022-08-03T01:48:35;4.93;;;4.67;;
5153;SDS011;2595;53.584;10.084;2022-08-03T01:51:03;5.23;;;5.03;;
5153;SDS011;2595;53.584;10.084;2022-08-03T01:53:30;5.10;;;4.80;;
5153;SDS011;2595;53.584;10.084;2022-08-03T01:55:57;5.83;;;5.63;;
5153;SDS011;2595;53.584;10.084;2022-08-03T01:58:24;5.40;;;5.20;;
5153;SDS011;2595;53.584;10.084;2022-08-03T02:00:52;5.63;;;5.33;;
5153;SDS011;2595;53.584;10.084;2022-08-03T02:03:23;5.47;;;5.27;;
5153;SDS011;2595;53.584;10.084;2022-08-03T02:05:49;5.30;;;5.00;;
5153;SDS011;2595;53.584;10.084;2022-08-03T02:08:19;5.23;;;5.03;;
5153;SDS011;2595;53.584;10.084;2022-08-03T02:10:48;6.30;;;6.00;;
5153;SDS011;2595;53.584;10.084;2022-08-03T02:13:15;7.03;;;4.93;;
5153;SDS011;2595;53.584;10.084;2022-08-03T02:15:43;6.03;;;5.60;;
5153;SDS011;2595;53.584;10.084;2022-08-03T02:18:10;6.07;;;5.77;;
5153;SDS011;2595;53.584;10.084;2022-08-03T02:20:37;5.90;;;5.50;;
5153;SDS011;2595;53.584;10.084;2022-08-03T02:23:04;5.03;;;4.83;;
5153;SDS011;2595;53.584;10.084;2022-08-03T02:25:31;5.63;;;5.33;;
5153;SDS011;2595;53.584;10.084;2022-08-03T02:28:05;5.50;;;5.10;;
5153;SDS011;2595;53.584;10.084;2022-08-03T02:30:36;5.53;;;5.33;;
5153;SDS011;2595;53.584;10.084;2022-08-03T02:33:06;5.30;;;5.10;;
5153;SDS011;2595;53.584;10.084;2022-08-03T02:35:36;6.13;;;5.83;;
5153;SDS011;2595;53.584;10.084;2022-08-03T02:38:05;5.57;;;5.27;;
5153;SDS011;2595;53.584;10.084;2022-08-03T02:40:34;5.57;;;5.37;;
5153;SDS011;2595;53.584;10.084;2022-08-03T02:43:07;5.27;;;4.90;;
5153;SDS011;2595;53.584;10.084;2022-08-03T02:45:41;5.27;;;4.77;;
5153;SDS011;2595;53.584;10.084;2022-08-03T02:48:10;6.10;;;5.70;;
5153;SDS011;2595;53.584;10.084;2022-08-03T02:50:36;5.97;;;5.57;;
5153;SDS011;2595;53.584;10.084;2022-08-03T02:53:03;5.43;;;5.17;;
5153;SDS011;2595;53.584;10.084;2022-08-03T02:55:30;5.73;;;5.43;;
5153;SDS011;2595;53.584;10.084;2022-08-03T02:57:58;6.40;;;6.10;;
5153;SDS011;2595;53.584;10.084;2022-08-03T03:00:26;6.27;;;5.87;;
5153;SDS011;2595;53.584;10.084;2022-08-03T03:02:54;5.43;;;5.13;;
5153;SDS011;2595;53.584;10.084;2022-08-03T03:05:26;5.93;;;5.73;;
5153;SDS011;2595;53.584;10.084;2022-08-03T03:07:53;5.37;;;5.10;;
5153;SDS011;2595;53.584;10.084;2022-08-03T03:10:20;5.40;;;5.20;;
5153;SDS011;2595;53.584;10.084;2022-08-03T03:12:49;5.73;;;5.43;;
5153;SDS011;2595;53.584;10.084;2022-08-03T03:15:16;5.13;;;4.90;;
5153;SDS011;2595;53.584;10.084;2022-08-03T03:17:42;6.43;;;6.10;;
5153;SDS011;2595;53.584;10.084;2022-08-03T03:20:09;6.10;;;5.80;;
5153;SDS011;2595;53.584;10.084;2022-08-03T03:22:35;6.03;;;5.63;;
5153;SDS011;2595;53.584;10.084;2022-08-03T03:25:02;5.73;;;5.43;;
5153;SDS011;2595;53.584;10.084;2022-08-03T03:27:30;6.17;;;5.87;;
5153;SDS011;2595;53.584;10.084;2022-08-03T03:29:58;5.80;;;5.60;;
5153;SDS011;2595;53.584;10.084;2022-08-03T03:32:25;6.50;;;6.00;;
5153;SDS011;2595;53.584;10.084;2022-08-03T03:34:52;6.40;;;5.97;;
5153;SDS011;2595;53.584;10.084;2022-08-03T03:37:18;6.17;;;5.87;;
5153;SDS011;2595;53.584;10.084;2022-08-03T03:39:44;5.83;;;5.53;;
5153;SDS011;2595;53.584;10.084;2022-08-03T03:42:10;6.50;;;6.00;;
5153;SDS011;2595;53.584;10.084;2022-08-03T03:44:35;6.00;;;5.60;;
5153;SDS011;2595;53.584;10.084;2022-08-03T03:47:01;6.83;;;6.53;;
5153;SDS011;2595;53.584;10.084;2022-08-03T03:49:27;5.73;;;5.40;;
5153;SDS011;2595;53.584;10.084;2022-08-03T03:51:53;6.23;;;5.83;;
5153;SDS011;2595;53.584;10.084;2022-08-03T03:54:19;6.00;;;5.80;;
5153;SDS011;2595;53.584;10.084;2022-08-03T03:56:45;6.50;;;6.10;;
5153;SDS011;2595;53.584;10.084;2022-08-03T03:59:11;6.57;;;6.07;;
5153;SDS011;2595;53.584;10.084;2022-08-03T04:01:37;7.47;;;6.90;;
5153;SDS011;2595;53.584;10.084;2022-08-03T04:04:03;7.43;;;6.77;;
5153;SDS011;2595;53.584;10.084;2022-08-03T04:06:47;7.63;;;7.13;;
5153;SDS011;2595;53.584;10.084;2022-08-03T04:09:32;7.43;;;7.03;;
5153;SDS011;2595;53.584;10.084;2022-08-03T04:12:18;6.83;;;6.53;;
5153;SDS011;2595;53.584;10.084;2022-08-03T04:14:47;6.50;;;6.20;;
5153;SDS011;2595;53.584;10.084;2022-08-03T04:17:14;7.20;;;6.80;;
5153;SDS011;2595;53.584;10.084;2022-08-03T04:19:41;6.10;;;5.80;;
5153;SDS011;2595;53.584;10.084;2022-08-03T04:22:12;6.40;;;6.00;;
5153;SDS011;2595;53.584;10.084;2022-08-03T04:24:44;6.63;;;6.30;;
5153;SDS011;2595;53.584;10.084;2022-08-03T04:27:14;8.60;;;7.90;;
5153;SDS011;2595;53.584;10.084;2022-08-03T04:29:44;7.20;;;6.50;;
5153;SDS011;2595;53.584;10.084;2022-08-03T04:32:12;7.20;;;6.90;;
5153;SDS011;2595;53.584;10.084;2022-08-03T04:34:38;6.27;;;5.87;;
5153;SDS011;2595;53.584;10.084;2022-08-03T04:37:06;7.00;;;6.43;;
5153;SDS011;2595;53.584;10.084;2022-08-03T04:39:42;7.43;;;7.03;;
5153;SDS011;2595;53.584;10.084;2022-08-03T04:42:13;6.03;;;5.83;;
5153;SDS011;2595;53.584;10.084;2022-08-03T04:44:40;6.93;;;6.53;;
5153;SDS011;2595;53.584;10.084;2022-08-03T04:47:08;7.30;;;6.50;;
5153;SDS011;2595;53.584;10.084;2022-08-03T04:49:35;6.50;;;6.20;;
5153;SDS011;2595;53.584;10.084;2022-08-03T04:52:01;6.80;;;6.40;;
5153;SDS011;2595;53.584;10.084;2022-08-03T04:54:28;7.43;;;7.03;;
5153;SDS011;2595;53.584;10.084;2022-08-03T04:56:54;6.80;;;6.50;;
5153;SDS011;2595;53.584;10.084;2022-08-03T04:59:20;6.83;;;6.53;;
5153;SDS011;2595;53.584;10.084;2022-08-03T05:01:45;7.53;;;7.07;;
5153;SDS011;2595;53.584;10.084;2022-08-03T05:04:11;6.87;;;6.53;;
5153;SDS011;2595;53.584;10.084;2022-08-03T05:06:37;6.87;;;6.47;;
5153;SDS011;2595;53.584;10.084;2022-08-03T05:09:03;9.40;;;6.97;;
5153;SDS011;2595;53.584;10.084;2022-08-03T05:11:28;7.03;;;6.60;;
5153;SDS011;2595;53.584;10.084;2022-08-03T05:13:54;7.47;;;6.97;;
5153;SDS011;2595;53.584;10.084;2022-08-03T05:16:19;6.97;;;6.67;;
5153;SDS011;2595;53.584;10.084;2022-08-03T05:18:45;7.03;;;6.53;;
5153;SDS011;2595;53.584;10.084;2022-08-03T05:21:11;6.73;;;6.33;;
5153;SDS011;2595;53.584;10.084;2022-08-03T05:23:38;8.00;;;6.37;;
5153;SDS011;2595;53.584;10.084;2022-08-03T05:26:04;7.60;;;7.10;;
5153;SDS011;2595;53.584;10.084;2022-08-03T05:28:30;7.00;;;6.60;;
5153;SDS011;2595;53.584;10.084;2022-08-03T05:30:55;7.07;;;6.67;;
5153;SDS011;2595;53.584;10.084;2022-08-03T05:33:21;7.27;;;6.77;;
5153;SDS011;2595;53.584;10.084;2022-08-03T05:35:47;6.83;;;6.10;;
5153;SDS011;2595;53.584;10.084;2022-08-03T05:38:12;6.70;;;6.40;;
5153;SDS011;2595;53.584;10.084;2022-08-03T05:40:38;7.87;;;7.07;;
5153;SDS011;2595;53.584;10.084;2022-08-03T05:43:04;7.27;;;6.87;;
5153;SDS011;2595;53.584;10.084;2022-08-03T05:45:29;7.80;;;7.10;;
5153;SDS011;2595;53.584;10.084;2022-08-03T05:47:55;7.90;;;7.50;;
5153;SDS011;2595;53.584;10.084;2022-08-03T05:50:20;8.57;;;7.90;;
5153;SDS011;2595;53.584;10.084;2022-08-03T05:52:46;8.13;;;7.73;;
5153;SDS011;2595;53.584;10.084;2022-08-03T05:55:12;7.70;;;7.03;;
5153;SDS011;2595;53.584;10.084;2022-08-03T05:57:38;7.97;;;7.37;;
5153;SDS011;2595;53.584;10.084;2022-08-03T06:00:05;7.53;;;6.83;;
5153;SDS011;2595;53.584;10.084;2022-08-03T06:02:33;8.40;;;7.90;;
5153;SDS011;2595;53.584;10.084;2022-08-03T06:04:58;14.90;;;8.37;;
5153;SDS011;2595;53.584;10.084;2022-08-03T06:07:24;9.80;;;7.20;;
5153;SDS011;2595;53.584;10.084;2022-08-03T06:09:50;9.23;;;8.20;;
5153;SDS011;2595;53.584;10.084;2022-08-03T06:12:16;8.30;;;7.70;;
5153;SDS011;2595;53.584;10.084;2022-08-03T06:14:41;8.17;;;7.23;;
5153;SDS011;2595;53.584;10.084;2022-08-03T06:17:07;7.67;;;7.07;;
5153;SDS011;2595;53.584;10.084;2022-08-03T06:19:33;8.30;;;7.53;;
5153;SDS011;2595;53.584;10.084;2022-08-03T06:21:58;6.90;;;6.33;;
5153;SDS011;2595;53.584;10.084;2022-08-03T06:24:24;6.90;;;6.40;;
5153;SDS011;2595;53.584;10.084;2022-08-03T06:26:49;11.10;;;7.30;;
5153;SDS011;2595;53.584;10.084;2022-08-03T06:29:15;7.40;;;6.97;;
5153;SDS011;2595;53.584;10.084;2022-08-03T06:31:41;7.93;;;7.30;;
5153;SDS011;2595;53.584;10.084;2022-08-03T06:34:07;6.40;;;5.93;;
5153;SDS011;2595;53.584;10.084;2022-08-03T06:36:32;6.90;;;6.50;;
5153;SDS011;2595;53.584;10.084;2022-08-03T06:38:58;6.73;;;6.20;;
5153;SDS011;2595;53.584;10.084;2022-08-03T06:41:24;7.30;;;6.90;;
5153;SDS011;2595;53.584;10.084;2022-08-03T06:43:50;7.63;;;6.30;;
5153;SDS011;2595;53.584;10.084;2022-08-03T06:46:16;7.33;;;6.73;;
5153;SDS011;2595;53.584;10.084;2022-08-03T06:48:42;6.60;;;6.20;;
5153;SDS011;2595;53.584;10.084;2022-08-03T06:51:08;6.33;;;5.60;;
5153;SDS011;2595;53.584;10.084;2022-08-03T06:53:34;6.90;;;6.13;;
5153;SDS011;2595;53.584;10.084;2022-08-03T06:56:00;6.83;;;6.43;;
5153;SDS011;2595;53.584;10.084;2022-08-03T06:58:26;6.90;;;6.40;;
5153;SDS011;2595;53.584;10.084;2022-08-03T07:00:52;6.50;;;5.90;;
5153;SDS011;2595;53.584;10.084;2022-08-03T07:03:19;6.37;;;5.77;;
5153;SDS011;2595;53.584;10.084;2022-08-03T07:05:46;5.47;;;5.17;;
5153;SDS011;2595;53.584;10.084;2022-08-03T07:08:13;5.57;;;5.27;;
5153;SDS011;2595;53.584;10.084;2022-08-03T07:10:39;6.20;;;5.60;;
5153;SDS011;2595;53.584;10.084;2022-08-03T07:13:06;5.47;;;5.17;;
5153;SDS011;2595;53.584;10.084;2022-08-03T07:15:32;6.00;;;5.50;;
5153;SDS011;2595;53.584;10.084;2022-08-03T07:17:59;6.03;;;5.40;;
5153;SDS011;2595;53.584;10.084;2022-08-03T07:20:24;7.07;;;5.70;;
5153;SDS011;2595;53.584;10.084;2022-08-03T07:22:53;5.60;;;5.30;;
5153;SDS011;2595;53.584;10.084;2022-08-03T07:25:20;5.53;;;5.10;;
5153;SDS011;2595;53.584;10.084;2022-08-03T07:27:47;5.00;;;4.60;;
5153;SDS011;2595;53.584;10.084;2022-08-03T07:30:13;5.53;;;5.23;;
5153;SDS011;2595;53.584;10.084;2022-08-03T07:32:39;6.10;;;5.77;;
5153;SDS011;2595;53.584;10.084;2022-08-03T07:35:06;4.80;;;4.60;;
5153;SDS011;2595;53.584;10.084;2022-08-03T07:37:32;5.17;;;4.97;;
5153;SDS011;2595;53.584;10.084;2022-08-03T07:39:58;6.10;;;5.37;;
5153;SDS011;2595;53.584;10.084;2022-08-03T07:42:28;4.80;;;4.40;;
5153;SDS011;2595;53.584;10.084;2022-08-03T07:44:54;4.17;;;3.83;;
5153;SDS011;2595;53.584;10.084;2022-08-03T07:47:20;5.03;;;4.73;;
5153;SDS011;2595;53.584;10.084;2022-08-03T07:49:49;4.13;;;3.93;;
5153;SDS011;2595;53.584;10.084;2022-08-03T07:52:15;4.10;;;3.90;;
5153;SDS011;2595;53.584;10.084;2022-08-03T07:54:59;4.20;;;3.93;;
5153;SDS011;2595;53.584;10.084;2022-08-03T07:57:28;4.37;;;4.07;;
5153;SDS011;2595;53.584;10.084;2022-08-03T07:59:54;3.97;;;3.60;;
5153;SDS011;2595;53.584;10.084;2022-08-03T08:02:19;5.10;;;4.63;;
5153;SDS011;2595;53.584;10.084;2022-08-03T08:04:45;3.67;;;3.43;;
5153;SDS011;2595;53.584;10.084;2022-08-03T08:07:10;6.10;;;3.50;;
5153;SDS011;2595;53.584;10.084;2022-08-03T08:09:36;4.60;;;4.30;;
5153;SDS011;2595;53.584;10.084;2022-08-03T08:12:02;4.70;;;4.30;;
5153;SDS011;2595;53.584;10.084;2022-08-03T08:14:28;5.00;;;4.60;;
5153;SDS011;2595;53.584;10.084;2022-08-03T08:16:53;3.63;;;3.37;;
5153;SDS011;2595;53.584;10.084;2022-08-03T08:19:19;5.33;;;4.13;;
5153;SDS011;2595;53.584;10.084;2022-08-03T08:21:45;3.47;;;3.17;;
5153;SDS011;2595;53.584;10.084;2022-08-03T08:24:10;3.73;;;3.23;;
5153;SDS011;2595;53.584;10.084;2022-08-03T08:26:36;3.77;;;3.47;;
5153;SDS011;2595;53.584;10.084;2022-08-03T08:29:02;3.77;;;3.57;;
5153;SDS011;2595;53.584;10.084;2022-08-03T08:31:28;3.30;;;3.10;;
5153;SDS011;2595;53.584;10.084;2022-08-03T08:33:54;7.43;;;3.60;;
5153;SDS011;2595;53.584;10.084;2022-08-03T08:36:19;4.20;;;2.60;;
5153;SDS011;2595;53.584;10.084;2022-08-03T08:38:45;2.20;;;2.10;;
5153;SDS011;2595;53.584;10.084;2022-08-03T08:41:12;2.50;;;2.30;;
5153;SDS011;2595;53.584;10.084;2022-08-03T08:43:38;3.30;;;2.93;;
5153;SDS011;2595;53.584;10.084;2022-08-03T08:46:04;2.87;;;2.67;;
5153;SDS011;2595;53.584;10.084;2022-08-03T08:48:34;6.73;;;2.47;;
5153;SDS011;2595;53.584;10.084;2022-08-03T08:51:04;3.70;;;2.50;;
5153;SDS011;2595;53.584;10.084;2022-08-03T08:53:30;2.60;;;2.40;;
5153;SDS011;2595;53.584;10.084;2022-08-03T08:56:00;2.50;;;2.30;;
5153;SDS011;2595;53.584;10.084;2022-08-03T08:58:28;2.63;;;1.90;;
5153;SDS011;2595;53.584;10.084;2022-08-03T09:00:55;3.07;;;2.37;;
5153;SDS011;2595;53.584;10.084;2022-08-03T09:03:21;2.67;;;2.40;;
5153;SDS011;2595;53.584;10.084;2022-08-03T09:05:47;4.50;;;2.53;;
5153;SDS011;2595;53.584;10.084;2022-08-03T09:08:13;6.90;;;2.47;;
5153;SDS011;2595;53.584;10.084;2022-08-03T09:10:38;5.30;;;3.20;;
5153;SDS011;2595;53.584;10.084;2022-08-03T09:13:04;5.67;;;2.37;;
5153;SDS011;2595;53.584;10.084;2022-08-03T09:15:32;3.50;;;2.60;;
5153;SDS011;2595;53.584;10.084;2022-08-03T09:17:58;2.63;;;2.20;;
5153;SDS011;2595;53.584;10.084;2022-08-03T09:20:26;4.60;;;3.30;;
5153;SDS011;2595;53.584;10.084;2022-08-03T09:22:54;3.33;;;2.97;;
5153;SDS011;2595;53.584;10.084;2022-08-03T09:25:28;3.73;;;3.43;;
5153;SDS011;2595;53.584;10.084;2022-08-03T09:28:11;5.67;;;2.90;;
5153;SDS011;2595;53.584;10.084;2022-08-03T09:30:38;2.50;;;2.30;;
5153;SDS011;2595;53.584;10.084;2022-08-03T09:33:07;2.43;;;2.27;;
5153;SDS011;2595;53.584;10.084;2022-08-03T09:35:51;2.20;;;2.00;;
5153;SDS011;2595;53.584;10.084;2022-08-03T09:38:21;2.27;;;2.07;;
5153;SDS011;2595;53.584;10.084;2022-08-03T09:40:48;2.77;;;2.53;;
5153;SDS011;2595;53.584;10.084;2022-08-03T09:43:14;7.20;;;2.80;;
5153;SDS011;2595;53.584;10.084;2022-08-03T09:45:40;2.67;;;2.43;;
5153;SDS011;2595;53.584;10.084;2022-08-03T09:48:27;2.80;;;2.43;;
5153;SDS011;2595;53.584;10.084;2022-08-03T09:50:58;2.60;;;2.30;;
5153;SDS011;2595;53.584;10.084;2022-08-03T09:53:25;2.67;;;2.47;;
5153;SDS011;2595;53.584;10.084;2022-08-03T09:58:24;3.40;;;3.10;;
5153;SDS011;2595;53.584;10.084;2022-08-03T10:03:28;2.80;;;2.23;;
5153;SDS011;2595;53.584;10.084;2022-08-03T10:05:56;2.57;;;2.33;;
5153;SDS011;2595;53.584;10.084;2022-08-03T10:08:21;4.40;;;2.03;;
5153;SDS011;2595;53.584;10.084;2022-08-03T10:10:49;2.83;;;2.23;;
5153;SDS011;2595;53.584;10.084;2022-08-03T10:13:18;2.20;;;2.00;;
5153;SDS011;2595;53.584;10.084;2022-08-03T10:15:44;2.60;;;2.10;;
5153;SDS011;2595;53.584;10.084;2022-08-03T10:18:11;3.37;;;3.17;;
5153;SDS011;2595;53.584;10.084;2022-08-03T10:20:40;3.03;;;2.20;;
5153;SDS011;2595;53.584;10.084;2022-08-03T10:23:09;8.23;;;2.60;;
5153;SDS011;2595;53.584;10.084;2022-08-03T10:25:36;2.43;;;2.27;;
5153;SDS011;2595;53.584;10.084;2022-08-03T10:28:04;3.70;;;2.23;;
5153;SDS011;2595;53.584;10.084;2022-08-03T10:30:32;4.90;;;2.50;;
5153;SDS011;2595;53.584;10.084;2022-08-03T10:33:01;5.00;;;2.07;;
5153;SDS011;2595;53.584;10.084;2022-08-03T10:35:33;3.80;;;2.20;;
5153;SDS011;2595;53.584;10.084;2022-08-03T10:38:06;2.60;;;2.40;;
5153;SDS011;2595;53.584;10.084;2022-08-03T10:40:34;2.43;;;2.23;;
5153;SDS011;2595;53.584;10.084;2022-08-03T10:43:06;3.20;;;2.20;;
5153;SDS011;2595;53.584;10.084;2022-08-03T10:45:37;2.97;;;2.77;;
5153;SDS011;2595;53.584;10.084;2022-08-03T10:48:05;4.73;;;2.70;;
5153;SDS011;2595;53.584;10.084;2022-08-03T10:50:32;2.83;;;2.63;;
5153;SDS011;2595;53.584;10.084;2022-08-03T10:53:03;3.17;;;2.43;;
5153;SDS011;2595;53.584;10.084;2022-08-03T11:01:19;3.37;;;2.10;;
5153;SDS011;2595;53.584;10.084;2022-08-03T11:04:17;3.80;;;2.00;;
5153;SDS011;2595;53.584;10.084;2022-08-03T11:06:44;3.00;;;2.10;;
5153;SDS011;2595;53.584;10.084;2022-08-03T11:11:37;3.40;;;2.10;;
5153;SDS011;2595;53.584;10.084;2022-08-03T11:14:05;3.23;;;2.30;;
5153;SDS011;2595;53.584;10.084;2022-08-03T11:16:37;3.07;;;2.00;;
5153;SDS011;2595;53.584;10.084;2022-08-03T11:19:10;5.73;;;1.57;;
5153;SDS011;2595;53.584;10.084;2022-08-03T11:40:37;3.10;;;2.33;;
5153;SDS011;2595;53.584;10.084;2022-08-03T11:48:33;2.23;;;2.13;;
5153;SDS011;2595;53.584;10.084;2022-08-03T11:51:01;2.30;;;2.10;;
5153;SDS011;2595;53.584;10.084;2022-08-03T11:53:27;2.40;;;2.20;;
5153;SDS011;2595;53.584;10.084;2022-08-03T11:55:56;2.23;;;2.03;;
5153;SDS011;2595;53.584;10.084;2022-08-03T11:58:23;12.23;;;2.30;;
5153;SDS011;2595;53.584;10.084;2022-08-03T12:00:50;4.23;;;2.27;;
5153;SDS011;2595;53.584;10.084;2022-08-03T12:03:17;3.20;;;2.20;;
5153;SDS011;2595;53.584;10.084;2022-08-03T12:05:51;7.40;;;2.70;;
5153;SDS011;2595;53.584;10.084;2022-08-03T12:10:55;4.70;;;1.80;;
5153;SDS011;2595;53.584;10.084;2022-08-03T12:13:22;5.73;;;2.40;;
5153;SDS011;2595;53.584;10.084;2022-08-03T12:15:55;4.80;;;1.97;;
5153;SDS011;2595;53.584;10.084;2022-08-03T12:18:23;1.97;;;1.77;;
5153;SDS011;2595;53.584;10.084;2022-08-03T12:20:50;2.93;;;1.93;;
5153;SDS011;2595;53.584;10.084;2022-08-03T12:23:18;4.70;;;2.20;;
5153;SDS011;2595;53.584;10.084;2022-08-03T12:25:45;3.87;;;1.90;;
5153;SDS011;2595;53.584;10.084;2022-08-03T12:30:48;2.60;;;1.90;;
5153;SDS011;2595;53.584;10.084;2022-08-03T12:33:16;2.17;;;1.50;;
5153;SDS011;2595;53.584;10.084;2022-08-03T12:35:48;3.77;;;2.20;;
5153;SDS011;2595;53.584;10.084;2022-08-03T12:38:35;3.03;;;1.67;;
5153;SDS011;2595;53.584;10.084;2022-08-03T12:41:03;3.37;;;1.53;;
5153;SDS011;2595;53.584;10.084;2022-08-03T12:43:33;5.13;;;1.80;;
5153;SDS011;2595;53.584;10.084;2022-08-03T12:46:33;2.77;;;2.27;;
5153;SDS011;2595;53.584;10.084;2022-08-03T12:49:12;4.70;;;2.40;;
5153;SDS011;2595;53.584;10.084;2022-08-03T12:54:21;3.00;;;2.20;;
5153;SDS011;2595;53.584;10.084;2022-08-03T12:59:31;4.40;;;1.87;;
5153;SDS011;2595;53.584;10.084;2022-08-03T13:01:58;2.00;;;1.80;;
5153;SDS011;2595;53.584;10.084;2022-08-03T13:04:25;4.53;;;2.60;;
5153;SDS011;2595;53.584;10.084;2022-08-03T13:06:57;3.57;;;2.27;;
5153;SDS011;2595;53.584;10.084;2022-08-03T13:09:23;4.57;;;2.53;;
5153;SDS011;2595;53.584;10.084;2022-08-03T13:12:12;2.20;;;1.90;;
5153;SDS011;2595;53.584;10.084;2022-08-03T13:14:37;2.23;;;2.13;;
5153;SDS011;2595;53.584;10.084;2022-08-03T13:17:04;2.77;;;2.27;;
5153;SDS011;2595;53.584;10.084;2022-08-03T13:19:31;2.33;;;1.93;;
5153;SDS011;2595;53.584;10.084;2022-08-03T13:21:57;6.30;;;2.10;;
5153;SDS011;2595;53.584;10.084;2022-08-03T13:24:23;2.00;;;1.90;;
5153;SDS011;2595;53.584;10.084;2022-08-03T13:26:49;3.50;;;1.80;;
5153;SDS011;2595;53.584;10.084;2022-08-03T13:29:15;6.43;;;2.00;;
5153;SDS011;2595;53.584;10.084;2022-08-03T13:31:41;2.10;;;2.00;;
5153;SDS011;2595;53.584;10.084;2022-08-03T13:34:07;2.20;;;2.10;;
5153;SDS011;2595;53.584;10.084;2022-08-03T13:36:33;2.27;;;2.07;;
5153;SDS011;2595;53.584;10.084;2022-08-03T13:39:00;4.40;;;2.03;;
5153;SDS011;2595;53.584;10.084;2022-08-03T13:41:25;2.70;;;2.07;;
5153;SDS011;2595;53.584;10.084;2022-08-03T13:43:51;1.80;;;1.70;;
5153;SDS011;2595;53.584;10.084;2022-08-03T13:46:17;2.70;;;2.03;;
5153;SDS011;2595;53.584;10.084;2022-08-03T13:48:44;1.90;;;1.60;;
5153;SDS011;2595;53.584;10.084;2022-08-03T13:51:10;2.53;;;2.10;;
5153;SDS011;2595;53.584;10.084;2022-08-03T13:53:36;1.83;;;1.70;;
5153;SDS011;2595;53.584;10.084;2022-08-03T13:56:01;2.90;;;1.80;;
5153;SDS011;2595;53.584;10.084;2022-08-03T13:58:27;2.17;;;1.97;;
5153;SDS011;2595;53.584;10.084;2022-08-03T14:00:52;1.77;;;1.67;;
5153;SDS011;2595;53.584;10.084;2022-08-03T14:03:18;5.83;;;2.30;;
5153;SDS011;2595;53.584;10.084;2022-08-03T14:05:44;5.30;;;1.77;;
5153;SDS011;2595;53.584;10.084;2022-08-03T14:08:10;2.10;;;2.00;;
5153;SDS011;2595;53.584;10.084;2022-08-03T14:10:36;2.93;;;1.73;;
5153;SDS011;2595;53.584;10.084;2022-08-03T14:13:04;2.80;;;2.20;;
5153;SDS011;2595;53.584;10.084;2022-08-03T14:15:30;2.60;;;2.40;;
5153;SDS011;2595;53.584;10.084;2022-08-03T14:17:56;4.37;;;2.57;;
5153;SDS011;2595;53.584;10.084;2022-08-03T14:20:22;17.67;;;2.10;;
5153;SDS011;2595;53.584;10.084;2022-08-03T14:22:48;2.53;;;2.33;;
5153;SDS011;2595;53.584;10.084;2022-08-03T14:25:13;2.53;;;2.10;;
5153;SDS011;2595;53.584;10.084;2022-08-03T14:27:39;4.80;;;1.97;;
5153;SDS011;2595;53.584;10.084;2022-08-03T14:30:05;4.07;;;1.70;;
5153;SDS011;2595;53.584;10.084;2022-08-03T14:32:31;2.17;;;1.93;;
5153;SDS011;2595;53.584;10.084;2022-08-03T14:34:56;5.53;;;2.63;;
5153;SDS011;2595;53.584;10.084;2022-08-03T14:37:22;3.80;;;2.40;;
5153;SDS011;2595;53.584;10.084;2022-08-03T14:39:47;2.80;;;2.60;;
5153;SDS011;2595;53.584;10.084;2022-08-03T14:42:13;2.90;;;2.47;;
5153;SDS011;2595;53.584;10.084;2022-08-03T14:44:39;5.63;;;1.70;;
5153;SDS011;2595;53.584;10.084;2022-08-03T14:47:05;3.80;;;2.03;;
5153;SDS011;2595;53.584;10.084;2022-08-03T14:49:31;2.43;;;2.20;;
5153;SDS011;2595;53.584;10.084;2022-08-03T14:51:56;3.33;;;3.07;;
5153;SDS011;2595;53.584;10.084;2022-08-03T14:54:22;7.53;;;2.30;;
5153;SDS011;2595;53.584;10.084;2022-08-03T14:56:48;2.40;;;1.90;;
5153;SDS011;2595;53.584;10.084;2022-08-03T14:59:14;3.50;;;1.90;;
5153;SDS011;2595;53.584;10.084;2022-08-03T15:01:39;1.80;;;1.70;;
5153;SDS011;2595;53.584;10.084;2022-08-03T15:04:05;2.80;;;2.60;;
5153;SDS011;2595;53.584;10.084;2022-08-03T15:06:31;2.30;;;2.10;;
5153;SDS011;2595;53.584;10.084;2022-08-03T15:08:56;2.10;;;1.90;;
5153;SDS011;2595;53.584;10.084;2022-08-03T15:11:22;2.17;;;1.77;;
5153;SDS011;2595;53.584;10.084;2022-08-03T15:13:47;2.87;;;2.67;;
5153;SDS011;2595;53.584;10.084;2022-08-03T15:16:13;2.17;;;2.03;;
5153;SDS011;2595;53.584;10.084;2022-08-03T15:18:38;2.47;;;1.93;;
5153;SDS011;2595;53.584;10.084;2022-08-03T15:21:05;2.07;;;1.83;;
5153;SDS011;2595;53.584;10.084;2022-08-03T15:23:31;11.17;;;1.97;;
5153;SDS011;2595;53.584;10.084;2022-08-03T15:25:56;2.80;;;2.50;;
5153;SDS011;2595;53.584;10.084;2022-08-03T15:28:22;2.50;;;2.30;;
5153;SDS011;2595;53.584;10.084;2022-08-03T15:30:49;2.20;;;2.00;;
5153;SDS011;2595;53.584;10.084;2022-08-03T15:33:16;2.50;;;2.30;;
5153;SDS011;2595;53.584;10.084;2022-08-03T15:35:42;6.03;;;2.60;;
5153;SDS011;2595;53.584;10.084;2022-08-03T15:38:08;2.40;;;2.20;;
5153;SDS011;2595;53.584;10.084;2022-08-03T15:40:33;4.60;;;3.27;;
5153;SDS011;2595;53.584;10.084;2022-08-03T15:42:59;3.73;;;2.03;;
5153;SDS011;2595;53.584;10.084;2022-08-03T15:45:25;3.40;;;3.10;;
5153;SDS011;2595;53.584;10.084;2022-08-03T15:47:51;3.80;;;2.20;;
5153;SDS011;2595;53.584;10.084;2022-08-03T15:50:16;2.57;;;1.80;;
5153;SDS011;2595;53.584;10.084;2022-08-03T15:52:42;3.20;;;1.80;;
5153;SDS011;2595;53.584;10.084;2022-08-03T15:55:08;5.10;;;2.33;;
5153;SDS011;2595;53.584;10.084;2022-08-03T15:57:34;4.40;;;2.30;;
5153;SDS011;2595;53.584;10.084;2022-08-03T15:59:59;3.73;;;2.27;;